createdAt,value
2023-04-12T00:01:07.639Z,15.15
2023-04-12T00:03:34.920Z,15.20
2023-04-12T00:06:03.782Z,13.98
2023-04-12T00:08:35.492Z,13.20
2023-04-12T00:11:04.291Z,15.23
2023-04-12T00:13:31.796Z,14.93
2023-04-12T00:16:00.783Z,12.98
2023-04-12T00:18:28.570Z,15.18
2023-04-12T00:20:56.407Z,14.82
2023-04-12T00:23:23.579Z,14.32
2023-04-12T00:25:50.832Z,12.13
2023-04-12T00:28:18.209Z,14.85
2023-04-12T00:30:46.116Z,12.48
2023-04-12T00:33:13.320Z,12.70
2023-04-12T00:35:40.523Z,12.82
2023-04-12T00:38:11.092Z,12.27
2023-04-12T00:40:44.194Z,11.95
2023-04-12T00:45:47.312Z,13.80
2023-04-12T00:48:19.256Z,10.88
2023-04-12T00:50:47.547Z,12.05
2023-04-12T00:53:15.808Z,10.95
2023-04-12T00:55:45.714Z,12.98
2023-04-12T00:58:14.714Z,12.65
2023-04-12T01:00:42.885Z,12.88
2023-04-12T01:03:12.058Z,12.65
2023-04-12T01:06:10.556Z,11.52
2023-04-12T01:09:30.468Z,11.80
2023-04-12T01:12:25.175Z,11.40
2023-04-12T01:15:06.642Z,13.52
2023-04-12T01:17:48.160Z,13.48
2023-04-12T01:20:23.785Z,12.90
2023-04-12T01:23:14.779Z,13.05
2023-04-12T01:25:48.685Z,12.45
2023-04-12T01:28:22.644Z,11.15
2023-04-12T01:30:52.717Z,13.77
2023-04-12T01:33:22.301Z,11.27
2023-04-12T01:35:52.820Z,12.95
2023-04-12T01:38:21.891Z,13.63
2023-04-12T01:40:49.187Z,12.05
2023-04-12T01:43:16.314Z,11.48
2023-04-12T01:45:43.503Z,13.77
2023-04-12T01:48:12.446Z,12.23
2023-04-12T01:51:00.875Z,13.25
2023-04-12T01:53:49.158Z,12.85
2023-04-12T01:56:20.287Z,12.00
2023-04-12T01:58:50.844Z,11.93
2023-04-12T02:01:19.599Z,12.07
2023-04-12T02:03:50.334Z,13.32
2023-04-12T02:06:23.004Z,13.00
2023-04-12T02:08:50.444Z,12.88
2023-04-12T02:11:18.649Z,12.40
2023-04-12T02:13:45.822Z,12.77
2023-04-12T02:16:14.363Z,11.63
2023-04-12T02:18:42.499Z,13.23
2023-04-12T02:21:09.808Z,14.25
2023-04-12T02:23:36.765Z,12.68
2023-04-12T02:26:04.020Z,11.25
2023-04-12T02:28:31.472Z,12.20
2023-04-12T02:30:58.944Z,11.52
2023-04-12T02:33:28.271Z,11.20
2023-04-12T02:35:57.334Z,12.50
2023-04-12T02:38:24.498Z,11.18
2023-04-12T02:40:51.677Z,11.10
2023-04-12T02:43:19.080Z,12.90
2023-04-12T02:45:48.478Z,12.85
2023-04-12T02:48:15.881Z,12.57
2023-04-12T02:50:42.910Z,13.02
2023-04-12T02:53:10.341Z,14.23
2023-04-12T02:55:39.001Z,14.57
2023-04-12T02:58:06.109Z,13.48
2023-04-12T03:00:33.790Z,14.55
2023-04-12T03:03:03.082Z,12.77
2023-04-12T03:05:30.348Z,13.20
2023-04-12T03:07:57.544Z,12.68
2023-04-12T03:10:24.936Z,12.02
2023-04-12T03:12:51.977Z,13.02
2023-04-12T03:15:19.103Z,10.65
2023-04-12T03:17:46.291Z,12.25
2023-04-12T03:20:14.646Z,12.02
2023-04-12T03:22:41.904Z,12.82
2023-04-12T03:25:10.473Z,12.55
2023-04-12T03:27:37.561Z,13.43
2023-04-12T03:30:06.696Z,13.82
2023-04-12T03:32:34.140Z,11.90
2023-04-12T03:35:01.277Z,12.68
2023-04-12T03:37:28.568Z,11.85
2023-04-12T03:39:55.640Z,12.95
2023-04-12T03:42:32.424Z,12.20
2023-04-12T03:45:01.848Z,11.73
2023-04-12T03:47:29.402Z,12.02
2023-04-12T03:50:10.165Z,12.05
2023-04-12T03:52:38.271Z,11.48
2023-04-12T03:55:07.868Z,11.07
2023-04-12T03:57:35.616Z,11.88
2023-04-12T04:00:02.832Z,14.45
2023-04-12T04:02:31.922Z,13.80
2023-04-12T04:04:59.470Z,12.57
2023-04-12T04:07:27.134Z,11.65
2023-04-12T04:09:57.096Z,12.50
2023-04-12T04:12:24.453Z,11.95
2023-04-12T04:14:51.615Z,14.02
2023-04-12T04:17:19.274Z,12.95
2023-04-12T04:19:46.422Z,11.82
2023-04-12T04:22:14.000Z,11.60
2023-04-12T04:24:41.252Z,13.35
2023-04-12T04:27:08.413Z,12.27
2023-04-12T04:29:36.933Z,12.10
2023-04-12T04:32:04.178Z,11.57
2023-04-12T04:34:31.897Z,11.55
2023-04-12T04:36:58.993Z,12.57
2023-04-12T04:39:27.582Z,12.77
2023-04-12T04:41:55.128Z,13.43
2023-04-12T04:44:22.533Z,11.80
2023-04-12T04:46:49.854Z,12.13
2023-04-12T04:49:17.225Z,12.13
2023-04-12T04:51:44.350Z,13.75
2023-04-12T04:54:14.171Z,13.18
2023-04-12T04:56:41.770Z,11.63
2023-04-12T04:59:08.922Z,13.73
2023-04-12T05:01:36.738Z,14.02
2023-04-12T05:04:04.360Z,15.90
2023-04-12T05:06:31.838Z,13.68
2023-04-12T05:09:00.996Z,13.13
2023-04-12T05:11:28.179Z,12.95
2023-04-12T05:13:55.532Z,15.05
2023-04-12T05:16:23.146Z,14.07
2023-04-12T05:18:50.347Z,16.60
2023-04-12T05:21:17.458Z,15.50
2023-04-12T05:23:47.472Z,19.75
2023-04-12T05:26:14.655Z,16.52
2023-04-12T05:28:41.708Z,18.13
2023-04-12T05:31:09.651Z,15.25
2023-04-12T05:33:37.570Z,14.95
2023-04-12T05:36:05.774Z,15.88
2023-04-12T05:38:33.258Z,15.10
2023-04-12T05:55:06.242Z,14.40
2023-04-12T05:57:33.405Z,15.93
2023-04-12T06:00:00.380Z,14.77
2023-04-12T06:02:27.457Z,14.25
2023-04-12T06:04:55.832Z,14.73
2023-04-12T06:07:22.975Z,14.93
2023-04-12T06:09:50.126Z,18.45
2023-04-12T06:12:17.142Z,15.65
2023-04-12T06:14:44.007Z,15.30
2023-04-12T06:17:11.328Z,15.07
2023-04-12T06:19:38.204Z,14.82
2023-04-12T06:22:05.207Z,15.95
2023-04-12T06:24:32.803Z,14.18
2023-04-12T06:26:59.706Z,14.70
2023-04-12T06:29:26.593Z,13.60
2023-04-12T06:31:53.611Z,16.33
2023-04-12T06:34:20.591Z,12.52
2023-04-12T06:36:47.860Z,13.35
2023-04-12T06:39:17.069Z,15.48
2023-04-12T06:41:44.087Z,15.18
2023-04-12T06:44:11.020Z,17.48
2023-04-12T06:46:37.970Z,39.28
2023-04-12T06:49:04.892Z,24.70
2023-04-12T06:51:31.862Z,15.18
2023-04-12T06:53:58.855Z,17.58
2023-04-12T06:56:25.847Z,15.52
2023-04-12T06:58:52.844Z,21.13
2023-04-12T07:01:19.846Z,24.85
2023-04-12T07:03:46.931Z,20.95
2023-04-12T07:06:23.616Z,17.40
2023-04-12T07:08:52.751Z,18.15
2023-04-12T07:11:22.676Z,17.00
2023-04-12T07:13:51.091Z,15.65
2023-04-12T07:16:18.552Z,16.33
2023-04-12T07:18:45.698Z,15.95
2023-04-12T07:21:17.460Z,15.32
2023-04-12T07:23:44.771Z,16.50
2023-04-12T07:26:11.761Z,23.92
2023-04-12T07:28:39.310Z,15.77
2023-04-12T07:31:07.486Z,12.80
2023-04-12T07:33:36.597Z,14.45
2023-04-12T07:36:04.938Z,15.98
2023-04-12T07:38:31.946Z,15.70
2023-04-12T07:40:58.916Z,16.45
2023-04-12T07:43:26.071Z,14.95
2023-04-12T07:45:55.891Z,15.85
2023-04-12T07:48:23.130Z,17.65
2023-04-12T07:50:50.672Z,15.50
2023-04-12T07:53:29.169Z,20.17
2023-04-12T07:55:57.112Z,17.38
2023-04-12T07:58:24.928Z,19.77
2023-04-12T08:00:53.837Z,18.30
2023-04-12T08:03:20.881Z,18.00
2023-04-12T08:05:53.354Z,22.13
2023-04-12T08:08:24.415Z,22.20
2023-04-12T08:10:52.474Z,28.25
2023-04-12T08:13:20.710Z,26.35
2023-04-12T08:15:48.028Z,22.85
2023-04-12T08:18:15.805Z,23.95
2023-04-12T08:20:44.199Z,24.38
2023-04-12T08:23:12.059Z,22.50
2023-04-12T08:25:39.584Z,24.13
2023-04-12T08:28:09.127Z,22.70
2023-04-12T08:30:36.755Z,24.63
2023-04-12T08:33:04.143Z,24.20
2023-04-12T08:35:31.714Z,24.60
2023-04-12T08:38:00.299Z,25.10
2023-04-12T08:40:27.303Z,22.92
2023-04-12T08:42:55.170Z,24.23
2023-04-12T08:45:29.187Z,22.67
2023-04-12T08:47:56.427Z,21.85
2023-04-12T08:50:26.871Z,24.05
2023-04-12T08:52:54.368Z,23.00
2023-04-12T08:55:21.422Z,21.33
2023-04-12T08:57:49.144Z,21.75
2023-04-12T09:00:17.910Z,23.38
2023-04-12T09:02:47.409Z,25.58
2023-04-12T09:05:15.534Z,21.50
2023-04-12T09:07:42.828Z,18.70
2023-04-12T09:10:09.812Z,19.33
2023-04-12T09:12:47.154Z,18.70
2023-04-12T09:15:17.725Z,18.13
2023-04-12T09:17:44.864Z,20.17
2023-04-12T09:20:17.877Z,18.52
2023-04-12T09:25:15.674Z,21.33
2023-04-12T09:27:51.036Z,20.60
2023-04-12T09:30:19.888Z,19.95
2023-04-12T09:32:49.724Z,19.58
2023-04-12T09:35:17.097Z,19.50
2023-04-12T09:37:44.063Z,19.08
2023-04-12T09:40:11.942Z,20.75
2023-04-12T09:42:53.859Z,19.70
2023-04-12T09:45:25.212Z,19.52
2023-04-12T09:47:54.080Z,20.55
2023-04-12T09:50:34.932Z,22.33
2023-04-12T09:53:04.272Z,21.20
2023-04-12T09:55:32.802Z,20.17
2023-04-12T09:58:04.642Z,21.73
2023-04-12T10:00:34.456Z,17.92
2023-04-12T10:03:01.984Z,19.58
2023-04-12T10:05:31.830Z,19.27
2023-04-12T10:07:59.906Z,19.15
2023-04-12T10:10:27.221Z,23.13
2023-04-12T10:12:55.041Z,22.30
2023-04-12T10:15:22.423Z,19.33
2023-04-12T10:17:54.146Z,20.48
2023-04-12T10:20:24.829Z,20.52
2023-04-12T10:25:27.239Z,19.30
2023-04-12T10:30:30.575Z,21.55
2023-04-12T10:33:03.716Z,21.23
2023-04-12T10:36:04.027Z,18.55
2023-04-12T10:38:44.635Z,17.63
2023-04-12T10:41:17.259Z,19.15
2023-04-12T10:43:49.735Z,22.50
2023-04-12T10:46:37.475Z,20.25
2023-04-12T10:49:17.754Z,20.30
2023-04-12T10:52:05.708Z,20.77
2023-04-12T10:54:37.101Z,19.63
2023-04-12T10:57:06.624Z,21.48
2023-04-12T10:59:57.470Z,20.90
2023-04-12T11:02:24.996Z,22.05
2023-04-12T11:05:10.348Z,21.20
2023-04-12T11:07:42.879Z,24.20
2023-04-12T11:10:15.813Z,22.83
2023-04-12T11:12:57.258Z,22.60
2023-04-12T11:15:28.977Z,22.70
2023-04-12T11:17:58.147Z,22.98
2023-04-12T11:20:27.892Z,23.65
2023-04-12T11:22:55.701Z,21.27
2023-04-12T11:25:23.082Z,23.95
2023-04-12T11:27:52.430Z,22.30
2023-04-12T11:30:20.254Z,24.27
2023-04-12T11:32:47.814Z,22.08
2023-04-12T11:35:20.405Z,24.27
2023-04-12T11:37:47.846Z,22.77
2023-04-12T11:40:15.076Z,23.48
2023-04-12T11:42:42.367Z,25.33
2023-04-12T11:45:15.836Z,24.75
2023-04-12T11:47:46.149Z,25.20
2023-04-12T11:50:13.511Z,22.77
2023-04-12T11:52:41.476Z,22.73
2023-04-12T11:55:11.378Z,24.30
2023-04-12T11:57:39.569Z,23.02
2023-04-12T12:00:07.486Z,26.05
2023-04-12T12:02:43.717Z,24.40
2023-04-12T12:05:17.199Z,26.38
2023-04-12T12:07:44.517Z,26.90
2023-04-12T12:10:13.357Z,25.85
2023-04-12T12:12:44.966Z,27.02
2023-04-12T12:15:15.384Z,30.35
2023-04-12T12:17:42.473Z,28.98
2023-04-12T12:20:21.512Z,25.63
2023-04-12T12:22:49.986Z,28.73
2023-04-12T12:25:20.506Z,27.38
2023-04-12T12:27:51.360Z,25.60
2023-04-12T12:30:20.414Z,26.52
2023-04-12T12:32:52.587Z,28.98
2023-04-12T12:35:19.805Z,28.33
2023-04-12T12:37:56.202Z,28.77
2023-04-12T12:40:34.176Z,31.20
2023-04-12T12:43:01.416Z,27.85
2023-04-12T12:45:31.570Z,29.95
2023-04-12T12:48:04.713Z,29.30
2023-04-12T12:50:34.944Z,30.30
2023-04-12T12:53:03.646Z,30.05
2023-04-12T12:55:31.561Z,32.88
2023-04-12T13:00:29.946Z,30.40
2023-04-12T13:02:58.648Z,28.48
2023-04-12T13:05:27.282Z,28.08
2023-04-12T13:07:54.327Z,25.92
2023-04-12T13:10:21.691Z,26.85
2023-04-12T13:12:48.676Z,27.83
2023-04-12T13:17:45.744Z,29.20
2023-04-12T13:20:13.181Z,28.70
2023-04-12T13:22:40.488Z,24.33
2023-04-12T13:25:09.186Z,31.30
2023-04-12T13:27:36.640Z,26.77
2023-04-12T13:30:04.749Z,27.52
2023-04-12T13:32:31.849Z,21.40
2023-04-12T13:34:58.906Z,19.98
2023-04-12T13:37:26.031Z,20.95
2023-04-12T13:39:53.176Z,19.77
2023-04-12T13:42:20.266Z,23.77
2023-04-12T13:44:48.705Z,24.27
2023-04-12T13:47:17.984Z,26.05
2023-04-12T13:49:45.421Z,20.33
2023-04-12T13:52:13.247Z,23.52
2023-04-12T13:54:41.086Z,22.50
2023-04-12T13:57:09.328Z,19.13
2023-04-12T13:59:36.327Z,20.67
2023-04-12T14:02:03.601Z,32.10
2023-04-12T14:04:32.179Z,28.58
2023-04-12T14:06:59.640Z,33.15
2023-04-12T14:09:28.175Z,35.45
2023-04-12T14:11:57.905Z,27.08
2023-04-12T14:14:27.279Z,23.00
2023-04-12T14:16:58.965Z,21.95
2023-04-12T14:19:26.945Z,37.25
2023-04-12T14:21:54.254Z,31.10
2023-04-12T14:24:21.934Z,25.83
2023-04-12T14:26:51.202Z,30.95
2023-04-12T14:29:18.235Z,21.63
2023-04-12T14:31:45.571Z,22.80
2023-04-12T14:34:13.497Z,22.02
2023-04-12T14:36:40.779Z,32.97
2023-04-12T14:39:11.198Z,17.98
2023-04-12T14:41:40.717Z,19.88
2023-04-12T14:44:07.780Z,43.95
2023-04-12T14:46:34.791Z,54.30
2023-04-12T14:49:01.858Z,33.45
2023-04-12T14:51:29.957Z,16.75
2023-04-12T14:53:58.592Z,17.95
2023-04-12T14:56:30.385Z,23.73
2023-04-12T14:59:02.636Z,18.60
2023-04-12T15:01:30.021Z,18.65
2023-04-12T15:03:57.544Z,14.65
2023-04-12T15:06:30.545Z,14.38
2023-04-12T15:08:57.596Z,13.60
2023-04-12T15:11:27.234Z,13.90
2023-04-12T15:13:55.647Z,17.05
2023-04-12T15:16:23.498Z,14.15
2023-04-12T15:18:52.020Z,13.65
2023-04-12T15:21:19.214Z,14.50
2023-04-12T15:23:46.406Z,14.85
2023-04-12T15:26:14.459Z,16.20
2023-04-12T15:28:42.492Z,13.40
2023-04-12T15:31:11.959Z,12.43
2023-04-12T15:33:39.047Z,14.63
2023-04-12T15:36:06.708Z,11.07
2023-04-12T15:38:42.596Z,10.48
2023-04-12T15:41:09.828Z,9.35
2023-04-12T15:43:37.388Z,11.77
2023-04-12T15:46:04.923Z,11.98
2023-04-12T15:48:32.395Z,15.05
2023-04-12T15:51:00.269Z,15.55
2023-04-12T15:53:27.710Z,34.97
2023-04-12T15:55:55.458Z,31.58
2023-04-12T15:58:27.322Z,11.77
2023-04-12T16:00:55.082Z,11.65
2023-04-12T16:03:26.510Z,12.43
2023-04-12T16:05:54.332Z,18.75
2023-04-12T16:08:22.389Z,13.73
2023-04-12T16:10:50.679Z,12.00
2023-04-12T16:13:18.870Z,13.30
2023-04-12T16:15:47.240Z,13.98
2023-04-12T16:18:14.374Z,27.10
2023-04-12T16:20:41.425Z,15.52
2023-04-12T16:23:09.311Z,12.63
2023-04-12T16:25:36.515Z,10.68
2023-04-12T16:28:04.218Z,9.90
2023-04-12T16:30:32.434Z,9.63
2023-04-12T16:33:00.334Z,9.18
2023-04-12T16:35:27.824Z,12.93
2023-04-12T16:37:55.582Z,14.43
2023-04-12T16:40:24.685Z,12.65
2023-04-12T16:42:52.065Z,12.27
2023-04-12T16:45:19.820Z,11.43
2023-04-12T16:47:47.733Z,13.65
2023-04-12T16:50:15.516Z,13.15
2023-04-12T16:52:42.773Z,15.90
2023-04-12T16:55:12.494Z,13.65
2023-04-12T16:57:41.855Z,15.43
2023-04-12T17:00:19.338Z,14.70
2023-04-12T17:02:51.284Z,12.20
2023-04-12T17:05:20.077Z,13.45
2023-04-12T17:07:51.453Z,13.18
2023-04-12T17:10:21.367Z,12.48
2023-04-12T17:12:51.662Z,13.77
2023-04-12T17:15:22.139Z,14.93
2023-04-12T17:17:59.712Z,14.30
2023-04-12T17:20:27.303Z,17.30
2023-04-12T17:22:55.567Z,18.90
2023-04-12T17:25:25.142Z,16.20
2023-04-12T17:27:54.343Z,17.10
2023-04-12T17:30:21.681Z,15.55
2023-04-12T17:32:48.814Z,15.15
2023-04-12T17:35:18.877Z,16.80
2023-04-12T17:37:46.951Z,17.33
2023-04-12T17:40:15.281Z,20.05
2023-04-12T17:42:44.164Z,21.58
2023-04-12T17:45:14.017Z,20.73
2023-04-12T17:47:42.604Z,19.58
2023-04-12T17:50:11.809Z,18.65
2023-04-12T17:52:39.370Z,19.58
2023-04-12T17:55:09.397Z,21.33
2023-04-12T17:57:36.816Z,21.63
2023-04-12T18:00:14.367Z,24.55
2023-04-12T18:02:43.927Z,22.73
2023-04-12T18:05:12.427Z,24.38
2023-04-12T18:07:43.763Z,23.88
2023-04-12T18:10:15.567Z,21.67
2023-04-12T18:12:45.213Z,29.92
2023-04-12T18:15:12.769Z,35.78
2023-04-12T18:17:39.978Z,39.30
2023-04-12T18:20:10.999Z,48.55
2023-04-12T18:22:38.882Z,45.05
2023-04-12T18:25:10.247Z,43.65
2023-04-12T18:27:37.457Z,37.42
2023-04-12T18:30:05.444Z,38.22
2023-04-12T18:32:32.525Z,35.75
2023-04-12T18:34:59.661Z,34.00
2023-04-12T18:37:27.826Z,55.33
2023-04-12T18:39:55.575Z,72.50
2023-04-12T18:42:22.674Z,96.72
2023-04-12T18:44:50.258Z,88.05
2023-04-12T18:47:19.798Z,69.18
2023-04-12T18:49:48.007Z,62.75
2023-04-12T18:52:15.066Z,53.65
2023-04-12T18:54:42.105Z,53.00
2023-04-12T18:57:09.160Z,46.47
2023-04-12T18:59:36.477Z,37.35
2023-04-12T19:02:03.667Z,24.98
2023-04-12T19:04:30.680Z,27.75
2023-04-12T19:06:57.855Z,26.67
2023-04-12T19:09:24.859Z,39.97
2023-04-12T19:11:55.493Z,49.35
2023-04-12T19:14:22.747Z,45.22
2023-04-12T19:16:49.747Z,40.28
2023-04-12T19:19:16.797Z,35.58
2023-04-12T19:21:43.830Z,34.40
2023-04-12T19:24:10.862Z,33.55
2023-04-12T19:26:40.122Z,31.38
2023-04-12T19:29:09.948Z,30.15
2023-04-12T19:31:37.092Z,25.52
2023-04-12T19:34:05.562Z,30.30
2023-04-12T19:36:32.706Z,29.42
2023-04-12T19:39:01.604Z,26.50
2023-04-12T19:41:28.763Z,26.02
2023-04-12T19:43:56.216Z,26.17
2023-04-12T19:46:23.355Z,23.75
2023-04-12T19:48:51.381Z,29.23
2023-04-12T19:51:18.489Z,29.60
2023-04-12T19:53:47.824Z,30.88
2023-04-12T19:56:15.132Z,33.05
2023-04-12T19:58:42.189Z,41.05
2023-04-12T20:01:09.934Z,45.15
2023-04-12T20:03:37.717Z,50.38
2023-04-12T20:06:06.123Z,46.15
2023-04-12T20:08:33.205Z,47.33
2023-04-12T20:11:00.286Z,46.15
2023-04-12T20:13:28.688Z,48.00
2023-04-12T20:15:55.658Z,45.33
2023-04-12T20:18:22.631Z,42.30
2023-04-12T20:20:49.739Z,43.65
2023-04-12T20:23:17.111Z,41.83
2023-04-12T20:25:49.092Z,42.47
2023-04-12T20:28:16.382Z,49.28
2023-04-12T20:30:45.339Z,47.65
2023-04-12T20:33:13.017Z,42.35
2023-04-12T20:35:40.992Z,38.58
2023-04-12T20:38:08.548Z,40.00
2023-04-12T20:40:35.939Z,33.67
2023-04-12T20:43:03.765Z,32.78
2023-04-12T20:45:30.851Z,39.00
2023-04-12T20:47:57.925Z,44.65
2023-04-12T20:50:25.357Z,46.22
2023-04-12T20:52:52.492Z,48.90
2023-04-12T20:55:22.785Z,48.13
2023-04-12T20:57:55.849Z,39.67
2023-04-12T21:00:23.818Z,41.05
2023-04-12T21:02:50.990Z,44.30
2023-04-12T21:05:18.040Z,43.42
2023-04-12T21:07:46.925Z,40.92
2023-04-12T21:10:14.789Z,46.63
2023-04-12T21:12:43.163Z,47.03
2023-04-12T21:15:12.022Z,50.58
2023-04-12T21:17:40.610Z,44.72
2023-04-12T21:20:11.555Z,43.35
2023-04-12T21:22:38.821Z,40.88
2023-04-12T21:25:07.567Z,41.65
2023-04-12T21:27:35.218Z,40.13
2023-04-12T21:30:03.510Z,38.33
2023-04-12T21:32:32.427Z,34.95
2023-04-12T21:35:00.090Z,38.75
2023-04-12T21:37:27.013Z,33.20
2023-04-12T21:39:53.895Z,35.63
2023-04-12T21:42:20.963Z,35.72
2023-04-12T21:44:47.836Z,32.63
2023-04-12T21:47:14.772Z,34.03
2023-04-12T21:49:41.627Z,35.15
2023-04-12T21:52:08.553Z,35.78
2023-04-12T21:54:36.920Z,38.70
2023-04-12T21:57:04.074Z,34.22
2023-04-12T21:59:30.964Z,35.28
2023-04-12T22:01:57.947Z,33.28
2023-04-12T22:04:24.815Z,34.50
2023-04-12T22:06:52.617Z,33.78
2023-04-12T22:09:20.277Z,32.25
2023-04-12T22:11:49.047Z,38.53
2023-04-12T22:14:15.978Z,35.97
2023-04-12T22:16:42.950Z,33.67
2023-04-12T22:19:09.871Z,37.33
2023-04-12T22:21:37.277Z,38.20
2023-04-12T22:24:04.230Z,38.33
2023-04-12T22:26:31.559Z,39.90
2023-04-12T22:28:58.494Z,35.40
2023-04-12T22:31:26.211Z,37.30
2023-04-12T22:33:55.355Z,35.03
2023-04-12T22:36:28.448Z,33.78
2023-04-12T22:38:56.273Z,32.72
2023-04-12T22:41:23.176Z,39.28
2023-04-12T22:43:50.131Z,39.65
2023-04-12T22:46:18.722Z,36.65
2023-04-12T22:48:47.730Z,36.63
2023-04-12T22:51:15.675Z,33.88
2023-04-12T22:53:43.527Z,34.80
2023-04-12T22:56:11.241Z,33.88
2023-04-12T22:58:40.178Z,35.88
2023-04-12T23:01:07.504Z,33.38
2023-04-12T23:03:34.529Z,35.45
2023-04-12T23:06:02.028Z,36.85
2023-04-12T23:08:29.339Z,34.63
2023-04-12T23:11:02.941Z,34.58
2023-04-12T23:13:34.827Z,36.67
2023-04-12T23:16:07.771Z,68.05
2023-04-12T23:21:03.978Z,60.95
2023-04-12T23:23:30.857Z,40.10
2023-04-12T23:25:57.749Z,38.42
2023-04-12T23:28:25.822Z,40.60
2023-04-12T23:30:52.803Z,38.20
2023-04-12T23:33:21.875Z,36.50
2023-04-12T23:35:58.557Z,34.45
2023-04-12T23:38:32.144Z,35.55
2023-04-12T23:41:04.095Z,33.83
2023-04-12T23:43:32.619Z,31.70
2023-04-12T23:46:01.460Z,30.90
2023-04-12T23:48:29.054Z,32.20
2023-04-12T23:50:56.305Z,35.28
2023-04-12T23:53:23.293Z,33.85
2023-04-12T23:55:53.455Z,29.40
2023-04-12T23:58:21.534Z,30.30
